• Join FlightAware (Why Join?)
  • Login
  • US Flag 
09:16AM EDT


 

Airport Tracker/Info


-or-


 

Live Flight TrackerFlight Track Log ✈ SWA2166 ✈ 10-Apr-2013 ✈ KMDW - KPVD

Flight Track Log - Related Links

Times and Time Zones

All times are in EDT time to prevent confusion due to time zone crossing. See the SWA2166 flight status page for this flight to view local times or setup timezone preferences in your user account.

Time Position Orientation Groundspeed Altitude Reporting Facility
EDT Latitude Longitude Course Direction KTS MPH feet Rate Location/Type
12:28PM 41.8028 -87.6478 85° East 218 251 3,500  Level Chicago Center
12:29PM 41.8078 -87.5436 86° East 256 295 6,600 3,540 Climbing Chicago Center
12:30PM 41.8167 -87.4200 84° East 321 369 10,800 3,900 Climbing Chicago Center
12:31PM 41.8014 -87.2950 99° East 335 386 14,600 3,060 Climbing Chicago Center
12:32PM 41.7753 -87.1394 103° East 352 405 17,100 2,520 Climbing Chicago Center
12:33PM 41.7619 -87.0019 97° East 369 425 19,800 2,640 Climbing Chicago Center
12:34PM 41.7633 -86.8436 89° East 415 478 22,600 2,880 Climbing Chicago Center
12:35PM 41.7786 -86.6756 83° East 434 499 25,800 2,580 Climbing Chicago Center
12:36PM 41.8006 -86.5097 80° East 447 514 28,000 2,040 Climbing Chicago Center
12:37PM 41.8222 -86.3367 80° East 465 535 30,000 1,920 Climbing Chicago Center
12:38PM 41.8450 -86.1581 80° East 481 554 32,000 2,160 Climbing Chicago Center
12:39PM 41.8667 -85.9783 81° East 486 559 34,500 2,160 Climbing Chicago Center
12:40PM 41.8886 -85.8050 80° East 474 545 36,500 1,560 Climbing Chicago Center
12:41PM 41.9297 -85.6358 72° East 472 543 37,800 1,200 Climbing Chicago Center
12:42PM 41.9778 -85.4647 69° East 480 552 39,000 780 Climbing Chicago Center
12:43PM 42.0078 -85.2692 78° East 509 586 39,400 600 Climbing Chicago Center
12:44PM 42.0139 -85.0692 88° East 472 543 40,400 720 Climbing Cleveland Center
12:45PM 42.0092 -84.8678 92° East 479 551 41,000 300 Climbing Cleveland Center
12:46PM 42.0011 -84.6883 93° East 484 557 41,000  Level Cleveland Center
12:47PM 41.9931 -84.5061 93° East 484 557 41,000  Level Cleveland Center
12:48PM 41.9864 -84.3267 93° East 484 557 41,000  Level Cleveland Center
12:49PM 41.9811 -84.1700 93° East 479 551 41,000  Level Cleveland Center
12:50PM 41.9717 -83.9933 94° East 473 544 41,000  Level Cleveland Center
12:51PM 41.9628 -83.7975 93° East 473 544 41,000  Level Cleveland Center
12:52PM 41.9594 -83.6214 91° East 479 551 41,000  Level Cleveland Center
12:53PM 41.9764 -83.4433 83° East 479 551 41,000  Level Cleveland Center
12:54PM 41.9975 -83.2656 81° East 479 551 41,000  Level Cleveland Center
12:55PM 42.0161 -83.0872 82° East 484 557 41,000  Level Cleveland Center
12:56PM 42.0322 -82.9092 83° East 484 557 41,000  Level Cleveland Center
12:57PM 42.0525 -82.7308 81° East 479 551 41,000  Level Cleveland Center
12:58PM 42.0617 -82.5578 86° East 479 551 41,000  Level Cleveland Center
12:59PM 42.0897 -82.3739 78° East 484 557 41,000  Level Cleveland Center
01:00PM 42.1028 -82.1981 84° East 485 558 41,000  Level Cleveland Center
01:01PM 42.1217 -82.0389 81° East 480 552 41,000  Level Cleveland Center
01:02PM 42.1383 -81.8600 83° East 480 552 41,000  Level Cleveland Center
01:03PM 42.1528 -81.6839 84° East 480 552 41,000 -360 Level Cleveland Center
01:04PM 42.1708 -81.5050 82° East 485 558 40,300 -840 Descending Cleveland Center
01:05PM 42.1869 -81.3258 83° East 479 551 39,400 -660 Descending Cleveland Center
01:06PM 42.2047 -81.1325 83° East 479 551 39,000 -300 Descending Cleveland Center
01:07PM 42.2200 -80.9533 83° East 479 551 38,800 -600 Descending Cleveland Center
01:08PM 42.2350 -80.7683 84° East 490 564 37,900 -900 Descending Cleveland Center
01:09PM 42.2517 -80.5803 83° East 490 564 37,000 -480 Descending Cleveland Center
01:10PM 42.2661 -80.3953 84° East 496 571 37,000  Level Cleveland Center
01:11PM 42.2803 -80.2100 84° East 496 571 37,000  Level Cleveland Center
01:12PM 42.2942 -80.0244 84° East 501 577 37,000  Level Cleveland Center
01:13PM 42.3097 -79.8336 84° East 502 578 37,000  Level Cleveland Center
01:14PM 42.3231 -79.6453 84° East 502 578 37,000  Level Cleveland Center
01:15PM 42.3381 -79.4567 84° East 502 578 37,000  Level Cleveland Center
01:16PM 42.3506 -79.2656 85° East 502 578 37,000  Level Cleveland Center
01:17PM 42.3628 -79.0797 85° East 497 572 37,000  Level Cleveland Center
01:18PM 42.3733 -78.9333 84° East 497 572 37,000  Level Cleveland Center
01:19PM 42.3869 -78.7222 85° East 497 572 37,000  Level Cleveland Center
01:20PM 42.4006 -78.5392 84° East 497 572 37,000  Level Cleveland Center
01:21PM 42.4114 -78.3503 85° East 497 572 37,000  Level Cleveland Center
01:23PM 42.4328 -77.9781 85° East 497 572 37,000  Level Cleveland Center
01:24PM 42.4469 -77.7722 85° East 502 578 37,000  Level Cleveland Center
01:25PM 42.4567 -77.5858 86° East 502 578 37,000  Level Cleveland Center
01:28PM 42.4786 -77.1281 86° East 512 589 37,000  Level Boston Center
01:28PM 42.4778 -76.9422 90° East 506 582 37,000  Level Boston Center
01:29PM 42.4708 -76.7472 93° East 500 575 37,000  Level Boston Center
01:30PM 42.4631 -76.5636 93° East 500 575 37,000  Level Boston Center
01:31PM 42.4572 -76.3747 92° East 500 575 37,000  Level Boston Center
01:33PM 42.4492 -76.1856 93° East 500 575 37,000  Level Boston Center
01:33PM 42.4383 -75.9992 94° East 500 575 37,000  Level Boston Center
01:34PM 42.4317 -75.8075 93° East 505 581 37,000  Level Boston Center
01:35PM 42.4219 -75.6381 94° East 505 581 37,000  Level Boston Center
01:37PM 42.4128 -75.4464 94° East 505 581 37,000  Level Boston Center
01:37PM 42.4028 -75.2603 94° East 500 575 37,000  Level Boston Center
01:38PM 42.3931 -75.0658 94° East 507 583 37,000 -180 Level Boston Center
01:39PM 42.3806 -74.8797 95° East 507 583 36,700 -1,680 Descending Boston Center
01:40PM 42.3697 -74.6939 94° East 500 575 33,700 -3,000 Descending Boston Center
01:42PM 42.3586 -74.5025 94° East 500 575 30,700 -2,400 Descending Boston Center
01:42PM 42.3472 -74.3222 95° East 494 568 29,000 -1,800 Descending Boston Center
01:44PM 42.3378 -74.1394 94° East 494 568 27,100 -2,520 Descending Boston Center
01:44PM 42.3256 -73.9564 95° East 488 562 24,000 -1,920 Descending Boston Center
01:46PM 42.3133 -73.7878 96° East 476 548 23,300 -960 Descending Boston Center
01:46PM 42.3050 -73.5967 93° East 462 532 22,100 -1,140 Descending Boston Center
01:47PM 42.2919 -73.4364 96° East 449 517 21,100 -1,020 Descending Boston Center
01:49PM 42.2783 -73.2847 97° East 429 494 20,100 -1,020 Descending Boston Center
01:49PM 42.2525 -73.1272 102° East 423 487 19,100 -600 Descending Boston Center
01:50PM 42.1842 -73.0200 131° Southeast 411 473 19,000 -60 Descending Boston Center
01:51PM 42.0972 -72.8989 134° Southeast 411 473 19,000  Level Boston Center
01:53PM 42.0174 -72.7679 129° Southeast  Level FlightAware Approximate
01:53PM 41.9500 -72.6606 129° Southeast 412 474 19,000  Level Boston Center
01:54PM 41.9292 -72.6242 128° Southeast 416 479 19,000 -1,020 Level Boston Center
01:54PM 41.8814 -72.5433 128° Southeast 417 480 18,000 -1,740 Descending Boston Center
01:55PM 41.8503 -72.4931 130° Southeast 406 467 17,100 -2,100 Descending Boston Center
01:55PM 41.8106 -72.4289 130° Southeast 400 460 15,900 -2,340 Descending Boston Center
01:56PM 41.7772 -72.3761 130° Southeast 395 455 14,800 -2,400 Descending Boston Center
01:56PM 41.7417 -72.3178 129° Southeast 395 455 13,500 -2,280 Descending Boston Center
01:57PM 41.7083 -72.2678 132° Southeast 386 444 12,500 -1,980 Descending Boston Center
01:58PM 41.6833 -72.2178 124° Southeast 390 449 11,500 -1,500 Descending Boston Center
01:58PM 41.6436 -72.1539 130° Southeast 376 433 11,000 -540 Descending Boston Center
01:58PM 41.6142 -72.0986 125° Southeast 371 427 11,000  Level Boston Center
01:59PM 41.5806 -72.0489 132° Southeast 359 413 11,000 -600 Level Boston Center
01:59PM 41.5617 -72.0044 120° Southeast 358 412 10,400 -1,320 Descending Boston Center
02:00PM 41.5428 -71.9408 112° Southeast 334 384 9,700 -1,920 Descending Boston Center
02:01PM 41.5672 -71.8297 74° East 305 351 7,500 -2,280 Descending Boston Center
02:02PM 41.5875 -71.7183 76° East 300 345 5,200 -1,740 Descending Boston Center
02:03PM 41.6075 -71.6211 75° East 258 297 4,000 -900 Descending Boston Center
02:04PM 41.6236 -71.5458 74° East 206 237 3,500 -900 Descending Boston Center
02:05PM 41.6442 -71.4956 61° Northeast 158 182 2,200 -1,380 Descending Boston Center
02:06PM 41.6833 -71.4617 33° Northeast 147 169 800 -1,380 Descending Boston Center
02:08PM 41.7167 -71.4167 37° Northeast  Level FlightAware Approximate
02:15PM 41.7240 -71.4282 37° Northeast  Level Estimated
02:16PM 41.7240 -71.4282 37° Northeast  Level Estimated